sensor_id;sensor_type;location;lat;lon;timestamp;temperature;humidity
4826;DHT22;2427;50.934;6.776;2023-11-19T00:00:40;11.90;2.50
4826;DHT22;2427;50.934;6.776;2023-11-19T00:03:06;12.00;1.50
4826;DHT22;2427;50.934;6.776;2023-11-19T00:05:31;12.10;1.00
4826;DHT22;2427;50.934;6.776;2023-11-19T00:07:57;12.10;1.00
4826;DHT22;2427;50.934;6.776;2023-11-19T00:10:22;12.10;1.00
4826;DHT22;2427;50.934;6.776;2023-11-19T00:12:49;12.10;1.00
4826;DHT22;2427;50.934;6.776;2023-11-19T00:15:15;12.20;1.00
4826;DHT22;2427;50.934;6.776;2023-11-19T00:17:45;12.10;1.00
4826;DHT22;2427;50.934;6.776;2023-11-19T00:20:20;12.10;1.00
4826;DHT22;2427;50.934;6.776;2023-11-19T00:22:47;12.10;1.00
4826;DHT22;2427;50.934;6.776;2023-11-19T00:25:17;12.10;1.00
4826;DHT22;2427;50.934;6.776;2023-11-19T00:27:42;12.10;1.00
4826;DHT22;2427;50.934;6.776;2023-11-19T00:30:10;12.10;1.00
4826;DHT22;2427;50.934;6.776;2023-11-19T00:32:36;12.20;1.00
4826;DHT22;2427;50.934;6.776;2023-11-19T00:35:04;12.20;1.00
4826;DHT22;2427;50.934;6.776;2023-11-19T00:37:30;12.10;1.00
4826;DHT22;2427;50.934;6.776;2023-11-19T00:39:55;12.20;1.00
4826;DHT22;2427;50.934;6.776;2023-11-19T00:42:22;12.20;1.00
4826;DHT22;2427;50.934;6.776;2023-11-19T00:44:48;12.20;1.00
4826;DHT22;2427;50.934;6.776;2023-11-19T00:47:14;12.20;1.00
4826;DHT22;2427;50.934;6.776;2023-11-19T00:49:40;12.30;1.00
4826;DHT22;2427;50.934;6.776;2023-11-19T00:52:05;12.30;1.00
4826;DHT22;2427;50.934;6.776;2023-11-19T00:54:32;12.30;1.00
4826;DHT22;2427;50.934;6.776;2023-11-19T00:56:57;12.30;1.00
4826;DHT22;2427;50.934;6.776;2023-11-19T00:59:23;12.40;1.00
4826;DHT22;2427;50.934;6.776;2023-11-19T01:01:49;12.40;1.00
4826;DHT22;2427;50.934;6.776;2023-11-19T01:04:16;12.30;1.00
4826;DHT22;2427;50.934;6.776;2023-11-19T01:06:42;12.30;1.00
4826;DHT22;2427;50.934;6.776;2023-11-19T01:09:08;12.40;1.00
4826;DHT22;2427;50.934;6.776;2023-11-19T01:11:34;12.30;4.50
4826;DHT22;2427;50.934;6.776;2023-11-19T01:14:00;12.30;16.90
4826;DHT22;2427;50.934;6.776;2023-11-19T01:16:27;12.20;31.50
4826;DHT22;2427;50.934;6.776;2023-11-19T01:18:52;12.20;48.30
4826;DHT22;2427;50.934;6.776;2023-11-19T01:21:18;12.20;63.70
4826;DHT22;2427;50.934;6.776;2023-11-19T01:23:44;12.20;74.20
4826;DHT22;2427;50.934;6.776;2023-11-19T01:26:14;12.20;83.60
4826;DHT22;2427;50.934;6.776;2023-11-19T01:28:40;12.10;90.80
4826;DHT22;2427;50.934;6.776;2023-11-19T01:31:08;12.20;94.50
4826;DHT22;2427;50.934;6.776;2023-11-19T01:33:35;12.20;97.80
4826;DHT22;2427;50.934;6.776;2023-11-19T01:36:01;12.20;99.90
4826;DHT22;2427;50.934;6.776;2023-11-19T01:38:27;12.20;99.90
4826;DHT22;2427;50.934;6.776;2023-11-19T01:40:56;12.20;99.90
4826;DHT22;2427;50.934;6.776;2023-11-19T01:43:36;12.20;99.90
4826;DHT22;2427;50.934;6.776;2023-11-19T01:46:03;12.10;99.90
4826;DHT22;2427;50.934;6.776;2023-11-19T01:48:30;12.30;99.90
4826;DHT22;2427;50.934;6.776;2023-11-19T01:50:57;12.30;99.90
4826;DHT22;2427;50.934;6.776;2023-11-19T01:53:23;12.30;99.90
4826;DHT22;2427;50.934;6.776;2023-11-19T01:55:49;12.30;99.90
4826;DHT22;2427;50.934;6.776;2023-11-19T01:58:15;12.30;99.90
4826;DHT22;2427;50.934;6.776;2023-11-19T02:11:03;12.20;99.90
4826;DHT22;2427;50.934;6.776;2023-11-19T02:16:51;12.20;99.90
4826;DHT22;2427;50.934;6.776;2023-11-19T02:19:20;12.20;99.90
4826;DHT22;2427;50.934;6.776;2023-11-19T02:21:45;12.20;99.90
4826;DHT22;2427;50.934;6.776;2023-11-19T02:24:12;12.20;99.90
4826;DHT22;2427;50.934;6.776;2023-11-19T02:29:22;12.20;97.50
4826;DHT22;2427;50.934;6.776;2023-11-19T02:31:48;12.10;96.50
4826;DHT22;2427;50.934;6.776;2023-11-19T02:34:13;12.10;98.50
4826;DHT22;2427;50.934;6.776;2023-11-19T02:36:39;12.10;98.70
4826;DHT22;2427;50.934;6.776;2023-11-19T02:39:07;12.10;98.30
4826;DHT22;2427;50.934;6.776;2023-11-19T02:41:35;12.10;98.70
4826;DHT22;2427;50.934;6.776;2023-11-19T02:44:01;12.10;99.50
4826;DHT22;2427;50.934;6.776;2023-11-19T02:46:26;12.10;97.20
4826;DHT22;2427;50.934;6.776;2023-11-19T02:48:52;12.00;91.20
4826;DHT22;2427;50.934;6.776;2023-11-19T02:51:18;12.00;85.10
4826;DHT22;2427;50.934;6.776;2023-11-19T02:53:44;12.00;75.80
4826;DHT22;2427;50.934;6.776;2023-11-19T02:56:09;12.00;56.60
4826;DHT22;2427;50.934;6.776;2023-11-19T02:58:45;12.00;47.50
4826;DHT22;2427;50.934;6.776;2023-11-19T03:01:12;11.90;27.80
4826;DHT22;2427;50.934;6.776;2023-11-19T03:03:48;12.00;25.70
4826;DHT22;2427;50.934;6.776;2023-11-19T03:06:19;12.00;11.40
4826;DHT22;2427;50.934;6.776;2023-11-19T03:08:45;11.90;3.80
4826;DHT22;2427;50.934;6.776;2023-11-19T03:11:10;11.90;2.70
4826;DHT22;2427;50.934;6.776;2023-11-19T03:13:36;11.90;1.00
4826;DHT22;2427;50.934;6.776;2023-11-19T03:16:01;11.90;1.00
4826;DHT22;2427;50.934;6.776;2023-11-19T03:18:27;11.90;1.00
4826;DHT22;2427;50.934;6.776;2023-11-19T03:20:53;11.90;1.00
4826;DHT22;2427;50.934;6.776;2023-11-19T03:23:19;11.90;1.00
4826;DHT22;2427;50.934;6.776;2023-11-19T03:25:45;11.90;1.00
4826;DHT22;2427;50.934;6.776;2023-11-19T03:28:10;11.90;1.00
4826;DHT22;2427;50.934;6.776;2023-11-19T03:30:36;12.00;1.00
4826;DHT22;2427;50.934;6.776;2023-11-19T03:33:02;12.00;1.00
4826;DHT22;2427;50.934;6.776;2023-11-19T03:35:28;12.00;1.00
4826;DHT22;2427;50.934;6.776;2023-11-19T03:37:53;11.90;1.00
4826;DHT22;2427;50.934;6.776;2023-11-19T03:40:19;11.90;1.00
4826;DHT22;2427;50.934;6.776;2023-11-19T03:42:45;11.90;1.00
4826;DHT22;2427;50.934;6.776;2023-11-19T03:45:11;12.00;1.00
4826;DHT22;2427;50.934;6.776;2023-11-19T03:47:37;12.00;1.00
4826;DHT22;2427;50.934;6.776;2023-11-19T03:50:04;12.00;1.00
4826;DHT22;2427;50.934;6.776;2023-11-19T03:52:30;12.10;1.00
4826;DHT22;2427;50.934;6.776;2023-11-19T03:54:55;12.20;1.00
4826;DHT22;2427;50.934;6.776;2023-11-19T03:57:22;12.20;1.00
4826;DHT22;2427;50.934;6.776;2023-11-19T03:59:48;12.20;1.00
4826;DHT22;2427;50.934;6.776;2023-11-19T04:02:13;12.10;1.00
4826;DHT22;2427;50.934;6.776;2023-11-19T04:04:39;12.10;1.00
4826;DHT22;2427;50.934;6.776;2023-11-19T04:07:05;12.10;1.00
4826;DHT22;2427;50.934;6.776;2023-11-19T04:09:31;12.10;1.00
4826;DHT22;2427;50.934;6.776;2023-11-19T04:11:58;12.10;1.00
4826;DHT22;2427;50.934;6.776;2023-11-19T04:14:24;12.10;1.00
4826;DHT22;2427;50.934;6.776;2023-11-19T04:16:50;12.10;1.00
4826;DHT22;2427;50.934;6.776;2023-11-19T04:19:16;12.20;1.00
4826;DHT22;2427;50.934;6.776;2023-11-19T04:21:42;12.20;1.00
4826;DHT22;2427;50.934;6.776;2023-11-19T04:24:11;12.20;1.00
4826;DHT22;2427;50.934;6.776;2023-11-19T04:26:44;12.20;1.00
4826;DHT22;2427;50.934;6.776;2023-11-19T04:29:14;12.20;1.00
4826;DHT22;2427;50.934;6.776;2023-11-19T04:31:40;12.10;1.00
4826;DHT22;2427;50.934;6.776;2023-11-19T04:34:06;12.20;1.00
4826;DHT22;2427;50.934;6.776;2023-11-19T04:36:35;12.20;1.00
4826;DHT22;2427;50.934;6.776;2023-11-19T04:39:03;12.20;1.00
4826;DHT22;2427;50.934;6.776;2023-11-19T04:41:30;12.20;1.00
4826;DHT22;2427;50.934;6.776;2023-11-19T04:43:56;12.20;1.00
4826;DHT22;2427;50.934;6.776;2023-11-19T04:46:22;12.20;1.00
4826;DHT22;2427;50.934;6.776;2023-11-19T04:48:49;12.20;1.00
4826;DHT22;2427;50.934;6.776;2023-11-19T04:51:14;12.10;1.00
4826;DHT22;2427;50.934;6.776;2023-11-19T04:53:40;12.10;1.00
4826;DHT22;2427;50.934;6.776;2023-11-19T04:56:09;12.10;1.00
4826;DHT22;2427;50.934;6.776;2023-11-19T04:58:35;12.00;1.00
4826;DHT22;2427;50.934;6.776;2023-11-19T05:01:03;12.10;1.00
4826;DHT22;2427;50.934;6.776;2023-11-19T05:03:29;12.00;1.00
4826;DHT22;2427;50.934;6.776;2023-11-19T05:05:54;12.10;1.00
4826;DHT22;2427;50.934;6.776;2023-11-19T05:08:20;12.00;1.00
4826;DHT22;2427;50.934;6.776;2023-11-19T05:10:45;12.00;1.00
4826;DHT22;2427;50.934;6.776;2023-11-19T05:13:11;12.00;1.00
4826;DHT22;2427;50.934;6.776;2023-11-19T05:15:38;12.00;1.00
4826;DHT22;2427;50.934;6.776;2023-11-19T05:18:03;12.00;99.90
4826;DHT22;2427;50.934;6.776;2023-11-19T05:20:30;12.00;99.90
4826;DHT22;2427;50.934;6.776;2023-11-19T05:22:55;12.10;99.90
4826;DHT22;2427;50.934;6.776;2023-11-19T05:25:21;12.00;99.90
4826;DHT22;2427;50.934;6.776;2023-11-19T05:27:47;12.00;99.90
4826;DHT22;2427;50.934;6.776;2023-11-19T05:30:12;12.00;99.90
4826;DHT22;2427;50.934;6.776;2023-11-19T05:32:38;12.00;99.90
4826;DHT22;2427;50.934;6.776;2023-11-19T05:35:04;12.00;99.90
4826;DHT22;2427;50.934;6.776;2023-11-19T05:37:30;11.90;99.90
4826;DHT22;2427;50.934;6.776;2023-11-19T05:39:55;11.90;99.90
4826;DHT22;2427;50.934;6.776;2023-11-19T05:42:21;11.90;99.90
4826;DHT22;2427;50.934;6.776;2023-11-19T05:44:46;11.90;59.80
4826;DHT22;2427;50.934;6.776;2023-11-19T05:47:12;11.80;22.50
4826;DHT22;2427;50.934;6.776;2023-11-19T05:49:37;11.80;1.00
4826;DHT22;2427;50.934;6.776;2023-11-19T05:52:04;11.80;1.00
4826;DHT22;2427;50.934;6.776;2023-11-19T05:54:32;11.80;1.00
4826;DHT22;2427;50.934;6.776;2023-11-19T05:57:05;11.80;1.00
4826;DHT22;2427;50.934;6.776;2023-11-19T05:59:34;11.90;1.00
4826;DHT22;2427;50.934;6.776;2023-11-19T06:02:01;11.90;1.00
4826;DHT22;2427;50.934;6.776;2023-11-19T06:04:27;11.90;1.00
4826;DHT22;2427;50.934;6.776;2023-11-19T06:06:53;11.80;1.00
4826;DHT22;2427;50.934;6.776;2023-11-19T06:09:20;11.80;1.00
4826;DHT22;2427;50.934;6.776;2023-11-19T06:11:46;11.70;1.00
4826;DHT22;2427;50.934;6.776;2023-11-19T06:14:12;11.70;1.00
4826;DHT22;2427;50.934;6.776;2023-11-19T06:16:38;11.70;1.00
4826;DHT22;2427;50.934;6.776;2023-11-19T06:19:05;11.80;1.00
4826;DHT22;2427;50.934;6.776;2023-11-19T06:21:30;11.80;1.00
4826;DHT22;2427;50.934;6.776;2023-11-19T06:23:56;11.70;1.00
4826;DHT22;2427;50.934;6.776;2023-11-19T06:26:22;11.70;1.00
4826;DHT22;2427;50.934;6.776;2023-11-19T06:28:48;11.70;1.00
4826;DHT22;2427;50.934;6.776;2023-11-19T06:31:14;11.80;1.00
4826;DHT22;2427;50.934;6.776;2023-11-19T06:33:41;11.70;1.00
4826;DHT22;2427;50.934;6.776;2023-11-19T06:36:07;11.60;1.00
4826;DHT22;2427;50.934;6.776;2023-11-19T06:38:34;11.70;1.00
4826;DHT22;2427;50.934;6.776;2023-11-19T06:41:00;11.80;1.00
4826;DHT22;2427;50.934;6.776;2023-11-19T06:43:26;11.80;1.00
4826;DHT22;2427;50.934;6.776;2023-11-19T06:45:53;11.70;1.00
4826;DHT22;2427;50.934;6.776;2023-11-19T06:48:19;11.70;1.00
4826;DHT22;2427;50.934;6.776;2023-11-19T06:50:44;11.70;1.00
4826;DHT22;2427;50.934;6.776;2023-11-19T06:53:10;11.70;1.00
4826;DHT22;2427;50.934;6.776;2023-11-19T06:55:35;11.70;1.00
4826;DHT22;2427;50.934;6.776;2023-11-19T06:58:01;11.60;1.00
4826;DHT22;2427;50.934;6.776;2023-11-19T07:00:28;11.60;1.00
4826;DHT22;2427;50.934;6.776;2023-11-19T07:02:54;11.60;1.00
4826;DHT22;2427;50.934;6.776;2023-11-19T07:05:20;11.60;1.00
4826;DHT22;2427;50.934;6.776;2023-11-19T07:07:46;11.60;1.00
4826;DHT22;2427;50.934;6.776;2023-11-19T07:10:12;11.60;1.00
4826;DHT22;2427;50.934;6.776;2023-11-19T07:12:38;11.60;1.00
4826;DHT22;2427;50.934;6.776;2023-11-19T07:15:04;11.70;1.00
4826;DHT22;2427;50.934;6.776;2023-11-19T07:17:31;11.60;1.00
4826;DHT22;2427;50.934;6.776;2023-11-19T07:19:56;11.60;99.90
4826;DHT22;2427;50.934;6.776;2023-11-19T07:22:25;11.70;99.90
4826;DHT22;2427;50.934;6.776;2023-11-19T07:24:50;11.70;99.90
4826;DHT22;2427;50.934;6.776;2023-11-19T07:27:16;11.60;99.90
4826;DHT22;2427;50.934;6.776;2023-11-19T07:29:43;11.60;99.90
4826;DHT22;2427;50.934;6.776;2023-11-19T07:32:09;11.50;1.00
4826;DHT22;2427;50.934;6.776;2023-11-19T07:34:34;11.50;1.00
4826;DHT22;2427;50.934;6.776;2023-11-19T07:37:00;11.50;99.90
4826;DHT22;2427;50.934;6.776;2023-11-19T07:39:28;11.50;99.90
4826;DHT22;2427;50.934;6.776;2023-11-19T07:41:54;11.60;99.90
4826;DHT22;2427;50.934;6.776;2023-11-19T07:44:20;11.60;99.90
4826;DHT22;2427;50.934;6.776;2023-11-19T07:46:46;11.50;99.90
4826;DHT22;2427;50.934;6.776;2023-11-19T07:49:13;11.60;99.90
4826;DHT22;2427;50.934;6.776;2023-11-19T07:51:39;11.60;99.90
4826;DHT22;2427;50.934;6.776;2023-11-19T07:54:04;11.70;99.90
4826;DHT22;2427;50.934;6.776;2023-11-19T07:56:31;11.70;80.30
4826;DHT22;2427;50.934;6.776;2023-11-19T07:58:56;11.70;7.60
4826;DHT22;2427;50.934;6.776;2023-11-19T08:01:22;11.80;1.00
4826;DHT22;2427;50.934;6.776;2023-11-19T08:03:49;11.80;1.00
4826;DHT22;2427;50.934;6.776;2023-11-19T08:06:14;11.80;1.00
4826;DHT22;2427;50.934;6.776;2023-11-19T08:08:40;11.80;1.00
4826;DHT22;2427;50.934;6.776;2023-11-19T08:11:06;11.70;1.00
4826;DHT22;2427;50.934;6.776;2023-11-19T08:13:31;11.80;1.00
4826;DHT22;2427;50.934;6.776;2023-11-19T08:15:57;11.80;1.00
4826;DHT22;2427;50.934;6.776;2023-11-19T08:18:24;11.80;1.00
4826;DHT22;2427;50.934;6.776;2023-11-19T08:20:50;11.80;1.00
4826;DHT22;2427;50.934;6.776;2023-11-19T08:23:21;11.80;1.00
4826;DHT22;2427;50.934;6.776;2023-11-19T08:25:48;12.00;1.00
4826;DHT22;2427;50.934;6.776;2023-11-19T08:28:15;12.00;99.90
4826;DHT22;2427;50.934;6.776;2023-11-19T08:30:40;12.00;1.00
4826;DHT22;2427;50.934;6.776;2023-11-19T08:33:06;12.00;99.90
4826;DHT22;2427;50.934;6.776;2023-11-19T08:35:32;12.00;99.90
4826;DHT22;2427;50.934;6.776;2023-11-19T08:37:58;12.00;99.90
4826;DHT22;2427;50.934;6.776;2023-11-19T08:40:24;12.00;99.90
4826;DHT22;2427;50.934;6.776;2023-11-19T08:42:53;12.10;43.70
4826;DHT22;2427;50.934;6.776;2023-11-19T08:45:18;12.10;1.00
4826;DHT22;2427;50.934;6.776;2023-11-19T08:47:44;12.20;1.00
4826;DHT22;2427;50.934;6.776;2023-11-19T08:50:11;12.10;1.00
4826;DHT22;2427;50.934;6.776;2023-11-19T08:52:37;12.20;1.00
4826;DHT22;2427;50.934;6.776;2023-11-19T08:55:03;12.30;99.90
4826;DHT22;2427;50.934;6.776;2023-11-19T08:57:31;12.20;1.00
4826;DHT22;2427;50.934;6.776;2023-11-19T08:59:56;12.30;1.00
4826;DHT22;2427;50.934;6.776;2023-11-19T09:02:22;12.30;99.90
4826;DHT22;2427;50.934;6.776;2023-11-19T09:04:47;12.30;99.90
4826;DHT22;2427;50.934;6.776;2023-11-19T09:07:13;12.30;99.90
4826;DHT22;2427;50.934;6.776;2023-11-19T09:09:39;12.40;72.00
4826;DHT22;2427;50.934;6.776;2023-11-19T09:12:04;12.40;99.90
4826;DHT22;2427;50.934;6.776;2023-11-19T09:14:30;12.40;1.00
4826;DHT22;2427;50.934;6.776;2023-11-19T09:16:56;12.40;1.00
4826;DHT22;2427;50.934;6.776;2023-11-19T09:19:22;12.40;1.00
4826;DHT22;2427;50.934;6.776;2023-11-19T09:21:47;12.50;1.00
4826;DHT22;2427;50.934;6.776;2023-11-19T09:24:15;12.40;32.20
4826;DHT22;2427;50.934;6.776;2023-11-19T09:26:40;12.50;1.00
4826;DHT22;2427;50.934;6.776;2023-11-19T09:29:10;12.50;1.00
4826;DHT22;2427;50.934;6.776;2023-11-19T09:31:37;12.60;1.00
4826;DHT22;2427;50.934;6.776;2023-11-19T09:34:03;12.60;1.00
4826;DHT22;2427;50.934;6.776;2023-11-19T09:36:29;12.60;1.00
4826;DHT22;2427;50.934;6.776;2023-11-19T09:38:54;12.60;1.00
4826;DHT22;2427;50.934;6.776;2023-11-19T09:41:20;12.70;1.00
4826;DHT22;2427;50.934;6.776;2023-11-19T09:43:45;12.70;1.00
4826;DHT22;2427;50.934;6.776;2023-11-19T09:46:14;12.80;1.00
4826;DHT22;2427;50.934;6.776;2023-11-19T09:48:40;13.00;1.00
4826;DHT22;2427;50.934;6.776;2023-11-19T09:51:07;13.10;1.00
4826;DHT22;2427;50.934;6.776;2023-11-19T09:53:34;13.20;1.00
4826;DHT22;2427;50.934;6.776;2023-11-19T09:56:00;13.30;1.00
4826;DHT22;2427;50.934;6.776;2023-11-19T09:58:31;13.30;1.00
4826;DHT22;2427;50.934;6.776;2023-11-19T10:00:57;13.20;1.00
4826;DHT22;2427;50.934;6.776;2023-11-19T10:03:35;13.30;1.00
4826;DHT22;2427;50.934;6.776;2023-11-19T10:06:03;13.30;1.00
4826;DHT22;2427;50.934;6.776;2023-11-19T10:08:29;13.30;1.00
4826;DHT22;2427;50.934;6.776;2023-11-19T10:10:55;13.30;1.00
4826;DHT22;2427;50.934;6.776;2023-11-19T10:13:26;13.30;1.00
4826;DHT22;2427;50.934;6.776;2023-11-19T10:15:53;13.40;1.00
4826;DHT22;2427;50.934;6.776;2023-11-19T10:18:18;13.40;1.00
4826;DHT22;2427;50.934;6.776;2023-11-19T10:20:48;13.60;1.00
4826;DHT22;2427;50.934;6.776;2023-11-19T10:23:14;13.70;1.00
4826;DHT22;2427;50.934;6.776;2023-11-19T10:25:40;13.70;1.00
4826;DHT22;2427;50.934;6.776;2023-11-19T10:28:05;13.70;1.00
4826;DHT22;2427;50.934;6.776;2023-11-19T10:30:31;13.70;1.00
4826;DHT22;2427;50.934;6.776;2023-11-19T10:33:14;13.80;1.00
4826;DHT22;2427;50.934;6.776;2023-11-19T10:35:58;14.00;1.00
4826;DHT22;2427;50.934;6.776;2023-11-19T10:38:25;14.00;1.00
4826;DHT22;2427;50.934;6.776;2023-11-19T10:40:52;14.00;1.00
4826;DHT22;2427;50.934;6.776;2023-11-19T10:43:19;14.00;1.00
4826;DHT22;2427;50.934;6.776;2023-11-19T10:45:45;13.90;1.00
4826;DHT22;2427;50.934;6.776;2023-11-19T10:48:11;13.90;1.00
4826;DHT22;2427;50.934;6.776;2023-11-19T10:50:39;13.70;1.00
4826;DHT22;2427;50.934;6.776;2023-11-19T10:53:06;13.70;1.00
4826;DHT22;2427;50.934;6.776;2023-11-19T10:55:39;13.70;1.00
4826;DHT22;2427;50.934;6.776;2023-11-19T10:58:05;13.70;1.00
4826;DHT22;2427;50.934;6.776;2023-11-19T11:00:56;13.60;1.00
4826;DHT22;2427;50.934;6.776;2023-11-19T11:03:25;13.60;1.00
4826;DHT22;2427;50.934;6.776;2023-11-19T11:05:51;13.50;1.00
4826;DHT22;2427;50.934;6.776;2023-11-19T11:08:19;13.40;1.00
4826;DHT22;2427;50.934;6.776;2023-11-19T11:10:48;13.30;1.00
4826;DHT22;2427;50.934;6.776;2023-11-19T11:13:17;13.30;1.00
4826;DHT22;2427;50.934;6.776;2023-11-19T11:15:44;13.30;1.00
4826;DHT22;2427;50.934;6.776;2023-11-19T11:18:12;13.30;1.00
4826;DHT22;2427;50.934;6.776;2023-11-19T11:20:39;13.50;1.00
4826;DHT22;2427;50.934;6.776;2023-11-19T11:26:19;14.40;1.00
4826;DHT22;2427;50.934;6.776;2023-11-19T11:31:44;13.90;1.00
4826;DHT22;2427;50.934;6.776;2023-11-19T11:37:34;13.70;1.00
4826;DHT22;2427;50.934;6.776;2023-11-19T11:40:02;13.50;1.00
4826;DHT22;2427;50.934;6.776;2023-11-19T11:42:38;13.40;1.00
4826;DHT22;2427;50.934;6.776;2023-11-19T11:57:50;13.90;1.00
4826;DHT22;2427;50.934;6.776;2023-11-19T12:00:22;14.50;1.00
4826;DHT22;2427;50.934;6.776;2023-11-19T12:02:49;14.60;1.00
4826;DHT22;2427;50.934;6.776;2023-11-19T12:05:15;14.80;1.00
4826;DHT22;2427;50.934;6.776;2023-11-19T12:07:41;15.30;1.00
4826;DHT22;2427;50.934;6.776;2023-11-19T12:10:08;15.10;1.00
4826;DHT22;2427;50.934;6.776;2023-11-19T12:12:34;15.30;1.00
4826;DHT22;2427;50.934;6.776;2023-11-19T12:15:03;15.40;1.00
4826;DHT22;2427;50.934;6.776;2023-11-19T12:20:00;15.30;1.00
4826;DHT22;2427;50.934;6.776;2023-11-19T12:22:26;15.10;1.00
4826;DHT22;2427;50.934;6.776;2023-11-19T12:24:55;14.70;1.00
4826;DHT22;2427;50.934;6.776;2023-11-19T12:27:21;15.00;1.00
4826;DHT22;2427;50.934;6.776;2023-11-19T12:29:51;14.90;1.00
4826;DHT22;2427;50.934;6.776;2023-11-19T12:32:17;14.50;1.00
4826;DHT22;2427;50.934;6.776;2023-11-19T12:34:45;14.30;1.00
4826;DHT22;2427;50.934;6.776;2023-11-19T12:37:10;14.00;1.00
4826;DHT22;2427;50.934;6.776;2023-11-19T12:39:36;13.90;1.00
4826;DHT22;2427;50.934;6.776;2023-11-19T12:42:02;13.90;1.00
4826;DHT22;2427;50.934;6.776;2023-11-19T12:44:28;13.80;1.00
4826;DHT22;2427;50.934;6.776;2023-11-19T12:47:03;13.70;1.00
4826;DHT22;2427;50.934;6.776;2023-11-19T12:49:29;13.70;1.00
4826;DHT22;2427;50.934;6.776;2023-11-19T12:51:55;13.60;1.00
4826;DHT22;2427;50.934;6.776;2023-11-19T12:54:32;13.60;1.00
4826;DHT22;2427;50.934;6.776;2023-11-19T12:56:58;13.60;1.00
4826;DHT22;2427;50.934;6.776;2023-11-19T12:59:24;13.60;1.00
4826;DHT22;2427;50.934;6.776;2023-11-19T13:01:56;13.60;1.00
4826;DHT22;2427;50.934;6.776;2023-11-19T13:04:28;13.60;1.00
4826;DHT22;2427;50.934;6.776;2023-11-19T13:06:57;13.60;1.00
4826;DHT22;2427;50.934;6.776;2023-11-19T13:09:29;13.60;1.00
4826;DHT22;2427;50.934;6.776;2023-11-19T13:11:55;13.80;1.00
4826;DHT22;2427;50.934;6.776;2023-11-19T13:14:36;13.80;1.00
4826;DHT22;2427;50.934;6.776;2023-11-19T13:17:02;13.80;1.00
4826;DHT22;2427;50.934;6.776;2023-11-19T13:19:28;13.90;1.00
4826;DHT22;2427;50.934;6.776;2023-11-19T13:21:53;13.90;1.00
4826;DHT22;2427;50.934;6.776;2023-11-19T13:24:19;13.80;1.00
4826;DHT22;2427;50.934;6.776;2023-11-19T13:26:44;13.70;1.00
4826;DHT22;2427;50.934;6.776;2023-11-19T13:29:10;13.70;1.00
4826;DHT22;2427;50.934;6.776;2023-11-19T13:31:36;13.60;1.00
4826;DHT22;2427;50.934;6.776;2023-11-19T13:34:01;13.70;1.00
4826;DHT22;2427;50.934;6.776;2023-11-19T13:36:27;13.80;1.00
4826;DHT22;2427;50.934;6.776;2023-11-19T13:38:53;13.80;1.00
4826;DHT22;2427;50.934;6.776;2023-11-19T13:41:27;13.90;1.00
4826;DHT22;2427;50.934;6.776;2023-11-19T13:43:53;14.70;1.00
4826;DHT22;2427;50.934;6.776;2023-11-19T13:46:19;15.10;1.00
4826;DHT22;2427;50.934;6.776;2023-11-19T13:48:45;15.50;1.00
4826;DHT22;2427;50.934;6.776;2023-11-19T13:51:11;15.30;1.00
4826;DHT22;2427;50.934;6.776;2023-11-19T13:53:36;14.80;1.00
4826;DHT22;2427;50.934;6.776;2023-11-19T13:56:03;14.90;1.00
4826;DHT22;2427;50.934;6.776;2023-11-19T13:58:28;14.80;1.00
4826;DHT22;2427;50.934;6.776;2023-11-19T14:00:54;14.50;1.00
4826;DHT22;2427;50.934;6.776;2023-11-19T14:03:20;14.20;1.00
4826;DHT22;2427;50.934;6.776;2023-11-19T14:05:45;14.10;1.00
4826;DHT22;2427;50.934;6.776;2023-11-19T14:08:11;13.90;1.00
4826;DHT22;2427;50.934;6.776;2023-11-19T14:10:40;13.90;1.00
4826;DHT22;2427;50.934;6.776;2023-11-19T14:13:07;13.90;1.00
4826;DHT22;2427;50.934;6.776;2023-11-19T14:15:32;13.80;1.00
4826;DHT22;2427;50.934;6.776;2023-11-19T14:17:58;13.80;1.00
4826;DHT22;2427;50.934;6.776;2023-11-19T14:20:23;13.80;1.00
4826;DHT22;2427;50.934;6.776;2023-11-19T14:22:49;13.70;1.00
4826;DHT22;2427;50.934;6.776;2023-11-19T14:25:16;13.70;1.00
4826;DHT22;2427;50.934;6.776;2023-11-19T14:27:43;13.60;1.00
4826;DHT22;2427;50.934;6.776;2023-11-19T14:30:10;13.60;1.00
4826;DHT22;2427;50.934;6.776;2023-11-19T14:32:37;13.50;1.00
4826;DHT22;2427;50.934;6.776;2023-11-19T14:35:06;13.50;1.00
4826;DHT22;2427;50.934;6.776;2023-11-19T14:37:33;13.50;1.00
4826;DHT22;2427;50.934;6.776;2023-11-19T14:39:58;13.50;1.00
4826;DHT22;2427;50.934;6.776;2023-11-19T14:42:24;13.40;1.00
4826;DHT22;2427;50.934;6.776;2023-11-19T14:44:53;13.40;1.00
4826;DHT22;2427;50.934;6.776;2023-11-19T14:47:19;13.40;1.00
4826;DHT22;2427;50.934;6.776;2023-11-19T14:49:45;13.40;1.00
4826;DHT22;2427;50.934;6.776;2023-11-19T14:52:10;13.40;1.00
4826;DHT22;2427;50.934;6.776;2023-11-19T14:54:37;13.40;1.00
4826;DHT22;2427;50.934;6.776;2023-11-19T14:57:03;13.30;1.00
4826;DHT22;2427;50.934;6.776;2023-11-19T14:59:29;13.30;1.00
4826;DHT22;2427;50.934;6.776;2023-11-19T15:01:55;13.30;1.00
4826;DHT22;2427;50.934;6.776;2023-11-19T15:04:20;13.30;1.00
4826;DHT22;2427;50.934;6.776;2023-11-19T15:06:46;13.30;1.00
4826;DHT22;2427;50.934;6.776;2023-11-19T15:09:11;13.20;1.00
4826;DHT22;2427;50.934;6.776;2023-11-19T15:11:45;13.20;1.00
4826;DHT22;2427;50.934;6.776;2023-11-19T15:14:12;13.10;1.00
4826;DHT22;2427;50.934;6.776;2023-11-19T15:16:40;13.00;1.00
4826;DHT22;2427;50.934;6.776;2023-11-19T15:19:06;13.00;1.00
4826;DHT22;2427;50.934;6.776;2023-11-19T15:21:33;12.90;1.00
4826;DHT22;2427;50.934;6.776;2023-11-19T15:23:59;12.90;1.00
4826;DHT22;2427;50.934;6.776;2023-11-19T15:26:25;12.90;1.00
4826;DHT22;2427;50.934;6.776;2023-11-19T15:28:51;12.80;1.00
4826;DHT22;2427;50.934;6.776;2023-11-19T15:31:21;12.70;1.00
4826;DHT22;2427;50.934;6.776;2023-11-19T15:33:47;12.60;1.00
4826;DHT22;2427;50.934;6.776;2023-11-19T15:36:13;12.40;1.00
4826;DHT22;2427;50.934;6.776;2023-11-19T15:38:39;12.30;1.00
4826;DHT22;2427;50.934;6.776;2023-11-19T15:41:05;12.30;1.00
4826;DHT22;2427;50.934;6.776;2023-11-19T15:43:32;12.30;1.00
4826;DHT22;2427;50.934;6.776;2023-11-19T15:45:58;12.20;1.00
4826;DHT22;2427;50.934;6.776;2023-11-19T15:48:24;12.20;1.00
4826;DHT22;2427;50.934;6.776;2023-11-19T15:50:51;12.20;1.00
4826;DHT22;2427;50.934;6.776;2023-11-19T15:53:17;12.20;1.00
4826;DHT22;2427;50.934;6.776;2023-11-19T15:55:44;12.10;1.00
4826;DHT22;2427;50.934;6.776;2023-11-19T15:58:09;12.10;1.00
4826;DHT22;2427;50.934;6.776;2023-11-19T16:00:35;12.00;1.00
4826;DHT22;2427;50.934;6.776;2023-11-19T16:03:00;12.00;1.00
4826;DHT22;2427;50.934;6.776;2023-11-19T16:05:26;12.10;1.00
4826;DHT22;2427;50.934;6.776;2023-11-19T16:07:52;12.10;1.00
4826;DHT22;2427;50.934;6.776;2023-11-19T16:10:17;12.10;1.00
4826;DHT22;2427;50.934;6.776;2023-11-19T16:12:45;12.10;1.00
4826;DHT22;2427;50.934;6.776;2023-11-19T16:15:11;12.20;1.00
4826;DHT22;2427;50.934;6.776;2023-11-19T16:17:42;12.20;1.00
4826;DHT22;2427;50.934;6.776;2023-11-19T16:20:09;12.20;1.00
4826;DHT22;2427;50.934;6.776;2023-11-19T16:22:39;12.20;1.00
4826;DHT22;2427;50.934;6.776;2023-11-19T16:25:05;12.20;1.00
4826;DHT22;2427;50.934;6.776;2023-11-19T16:27:31;12.20;1.00
4826;DHT22;2427;50.934;6.776;2023-11-19T16:29:57;12.30;1.00
4826;DHT22;2427;50.934;6.776;2023-11-19T16:32:24;12.30;1.00
4826;DHT22;2427;50.934;6.776;2023-11-19T16:34:49;12.30;1.00
4826;DHT22;2427;50.934;6.776;2023-11-19T16:37:15;12.30;1.00
4826;DHT22;2427;50.934;6.776;2023-11-19T16:39:42;12.30;1.00
4826;DHT22;2427;50.934;6.776;2023-11-19T16:42:08;12.30;1.00
4826;DHT22;2427;50.934;6.776;2023-11-19T16:44:34;12.30;1.00
4826;DHT22;2427;50.934;6.776;2023-11-19T16:46:59;12.30;1.00
4826;DHT22;2427;50.934;6.776;2023-11-19T16:49:25;12.30;1.00
4826;DHT22;2427;50.934;6.776;2023-11-19T16:51:51;12.40;1.00